sensor_id;sensor_type;location;lat;lon;timestamp;P1;durP1;ratioP1;P2;durP2;ratioP2
21034;SDS011;10676;50.848;3.272;2023-03-01T00:01:22;1999.90;;;999.90;;
21034;SDS011;10676;50.848;3.272;2023-03-01T00:03:49;1999.90;;;999.90;;
21034;SDS011;10676;50.848;3.272;2023-03-01T00:06:15;1999.90;;;999.90;;
21034;SDS011;10676;50.848;3.272;2023-03-01T00:08:41;1999.90;;;999.90;;
21034;SDS011;10676;50.848;3.272;2023-03-01T00:13:35;1999.90;;;999.90;;
21034;SDS011;10676;50.848;3.272;2023-03-01T00:16:02;1999.90;;;999.90;;
21034;SDS011;10676;50.848;3.272;2023-03-01T00:18:32;1999.90;;;999.90;;
21034;SDS011;10676;50.848;3.272;2023-03-01T00:20:58;1999.90;;;999.90;;
21034;SDS011;10676;50.848;3.272;2023-03-01T00:23:24;1999.90;;;999.90;;
21034;SDS011;10676;50.848;3.272;2023-03-01T00:25:51;1999.90;;;999.90;;
21034;SDS011;10676;50.848;3.272;2023-03-01T00:28:17;1999.90;;;999.90;;
21034;SDS011;10676;50.848;3.272;2023-03-01T00:30:44;1999.90;;;999.90;;
21034;SDS011;10676;50.848;3.272;2023-03-01T00:33:09;1999.90;;;999.90;;
21034;SDS011;10676;50.848;3.272;2023-03-01T00:35:35;1999.90;;;999.90;;
21034;SDS011;10676;50.848;3.272;2023-03-01T00:38:01;1999.90;;;999.90;;
21034;SDS011;10676;50.848;3.272;2023-03-01T00:40:28;1999.90;;;999.90;;
21034;SDS011;10676;50.848;3.272;2023-03-01T00:42:55;1999.90;;;999.90;;
21034;SDS011;10676;50.848;3.272;2023-03-01T00:45:21;1999.90;;;999.90;;
21034;SDS011;10676;50.848;3.272;2023-03-01T00:47:47;1999.90;;;999.90;;
21034;SDS011;10676;50.848;3.272;2023-03-01T00:50:14;1999.90;;;999.90;;
21034;SDS011;10676;50.848;3.272;2023-03-01T00:52:40;1999.90;;;999.90;;
21034;SDS011;10676;50.848;3.272;2023-03-01T00:55:06;1999.90;;;999.90;;
21034;SDS011;10676;50.848;3.272;2023-03-01T00:57:32;1999.90;;;999.90;;
21034;SDS011;10676;50.848;3.272;2023-03-01T00:59:58;1999.90;;;999.90;;
21034;SDS011;10676;50.848;3.272;2023-03-01T01:02:24;1999.90;;;999.90;;
21034;SDS011;10676;50.848;3.272;2023-03-01T01:04:50;1999.90;;;999.90;;
21034;SDS011;10676;50.848;3.272;2023-03-01T01:07:15;1999.90;;;999.90;;
21034;SDS011;10676;50.848;3.272;2023-03-01T01:09:41;1999.90;;;999.90;;
21034;SDS011;10676;50.848;3.272;2023-03-01T01:12:07;1999.90;;;999.90;;
21034;SDS011;10676;50.848;3.272;2023-03-01T01:14:33;1999.90;;;999.90;;
21034;SDS011;10676;50.848;3.272;2023-03-01T01:16:59;1999.90;;;999.90;;
21034;SDS011;10676;50.848;3.272;2023-03-01T01:19:25;1999.90;;;999.90;;
21034;SDS011;10676;50.848;3.272;2023-03-01T01:21:51;1999.90;;;999.90;;
21034;SDS011;10676;50.848;3.272;2023-03-01T01:24:17;1999.90;;;999.90;;
21034;SDS011;10676;50.848;3.272;2023-03-01T01:26:43;1999.90;;;999.90;;
21034;SDS011;10676;50.848;3.272;2023-03-01T01:29:09;1999.90;;;999.90;;
21034;SDS011;10676;50.848;3.272;2023-03-01T01:31:35;1999.90;;;999.90;;
21034;SDS011;10676;50.848;3.272;2023-03-01T01:34:03;1999.90;;;999.90;;
21034;SDS011;10676;50.848;3.272;2023-03-01T01:36:30;1999.90;;;999.90;;
21034;SDS011;10676;50.848;3.272;2023-03-01T01:38:56;1999.90;;;999.90;;
21034;SDS011;10676;50.848;3.272;2023-03-01T01:41:22;1999.90;;;999.90;;
21034;SDS011;10676;50.848;3.272;2023-03-01T01:44:09;1999.90;;;999.90;;
21034;SDS011;10676;50.848;3.272;2023-03-01T01:46:51;1999.90;;;999.90;;
21034;SDS011;10676;50.848;3.272;2023-03-01T01:49:43;1999.90;;;999.90;;
21034;SDS011;10676;50.848;3.272;2023-03-01T01:52:22;1999.90;;;999.90;;
21034;SDS011;10676;50.848;3.272;2023-03-01T01:54:53;1999.90;;;999.90;;
21034;SDS011;10676;50.848;3.272;2023-03-01T01:57:24;1999.90;;;999.90;;
21034;SDS011;10676;50.848;3.272;2023-03-01T01:59:58;1999.90;;;999.90;;
21034;SDS011;10676;50.848;3.272;2023-03-01T02:02:27;1999.90;;;999.90;;
21034;SDS011;10676;50.848;3.272;2023-03-01T02:04:55;1999.90;;;999.90;;
21034;SDS011;10676;50.848;3.272;2023-03-01T02:07:35;1999.90;;;999.90;;
21034;SDS011;10676;50.848;3.272;2023-03-01T02:10:04;1999.90;;;999.90;;
21034;SDS011;10676;50.848;3.272;2023-03-01T02:12:30;1999.90;;;999.90;;
21034;SDS011;10676;50.848;3.272;2023-03-01T02:14:56;1999.90;;;999.90;;
21034;SDS011;10676;50.848;3.272;2023-03-01T02:17:22;29.10;;;22.00;;
21034;SDS011;10676;50.848;3.272;2023-03-01T02:22:30;27.00;;;22.77;;
21034;SDS011;10676;50.848;3.272;2023-03-01T02:27:55;29.93;;;24.50;;
21034;SDS011;10676;50.848;3.272;2023-03-01T02:30:23;28.10;;;22.60;;
21034;SDS011;10676;50.848;3.272;2023-03-01T02:32:51;28.37;;;23.53;;
21034;SDS011;10676;50.848;3.272;2023-03-01T02:35:19;31.77;;;25.00;;
21034;SDS011;10676;50.848;3.272;2023-03-01T02:37:46;30.37;;;24.27;;
21034;SDS011;10676;50.848;3.272;2023-03-01T02:40:16;33.43;;;25.23;;
21034;SDS011;10676;50.848;3.272;2023-03-01T02:42:53;28.37;;;23.47;;
21034;SDS011;10676;50.848;3.272;2023-03-01T02:45:21;31.47;;;25.90;;
21034;SDS011;10676;50.848;3.272;2023-03-01T02:47:48;28.73;;;25.13;;
21034;SDS011;10676;50.848;3.272;2023-03-01T02:52:53;34.30;;;25.00;;
21034;SDS011;10676;50.848;3.272;2023-03-01T02:55:29;32.13;;;25.33;;
21034;SDS011;10676;50.848;3.272;2023-03-01T02:57:55;34.50;;;25.97;;
21034;SDS011;10676;50.848;3.272;2023-03-01T03:00:23;36.20;;;26.50;;
21034;SDS011;10676;50.848;3.272;2023-03-01T03:02:53;33.50;;;25.97;;
21034;SDS011;10676;50.848;3.272;2023-03-01T03:05:29;39.47;;;26.60;;
21034;SDS011;10676;50.848;3.272;2023-03-01T03:07:56;34.93;;;25.67;;
21034;SDS011;10676;50.848;3.272;2023-03-01T03:10:25;37.00;;;27.27;;
21034;SDS011;10676;50.848;3.272;2023-03-01T03:13:03;36.20;;;26.83;;
21034;SDS011;10676;50.848;3.272;2023-03-01T03:15:32;36.23;;;26.40;;
21034;SDS011;10676;50.848;3.272;2023-03-01T03:18:01;36.43;;;28.60;;
21034;SDS011;10676;50.848;3.272;2023-03-01T03:20:29;36.80;;;28.47;;
21034;SDS011;10676;50.848;3.272;2023-03-01T03:22:56;37.30;;;28.43;;
21034;SDS011;10676;50.848;3.272;2023-03-01T03:25:23;39.80;;;28.63;;
21034;SDS011;10676;50.848;3.272;2023-03-01T03:27:51;42.37;;;29.83;;
21034;SDS011;10676;50.848;3.272;2023-03-01T03:30:22;40.80;;;29.73;;
21034;SDS011;10676;50.848;3.272;2023-03-01T03:32:49;44.23;;;29.80;;
21034;SDS011;10676;50.848;3.272;2023-03-01T03:35:29;43.40;;;30.50;;
21034;SDS011;10676;50.848;3.272;2023-03-01T03:37:57;41.57;;;30.83;;
21034;SDS011;10676;50.848;3.272;2023-03-01T03:40:30;45.33;;;31.67;;
21034;SDS011;10676;50.848;3.272;2023-03-01T03:42:59;43.90;;;29.93;;
21034;SDS011;10676;50.848;3.272;2023-03-01T03:45:25;43.30;;;32.43;;
21034;SDS011;10676;50.848;3.272;2023-03-01T03:47:51;43.33;;;30.67;;
21034;SDS011;10676;50.848;3.272;2023-03-01T03:50:17;42.63;;;30.00;;
21034;SDS011;10676;50.848;3.272;2023-03-01T03:52:43;45.93;;;31.13;;
21034;SDS011;10676;50.848;3.272;2023-03-01T03:55:09;46.67;;;32.43;;
21034;SDS011;10676;50.848;3.272;2023-03-01T03:57:42;45.27;;;30.73;;
21034;SDS011;10676;50.848;3.272;2023-03-01T04:00:11;44.73;;;32.57;;
21034;SDS011;10676;50.848;3.272;2023-03-01T04:02:40;47.00;;;30.43;;
21034;SDS011;10676;50.848;3.272;2023-03-01T04:05:07;46.00;;;32.17;;
21034;SDS011;10676;50.848;3.272;2023-03-01T04:07:37;44.13;;;31.13;;
21034;SDS011;10676;50.848;3.272;2023-03-01T04:10:04;48.90;;;33.33;;
21034;SDS011;10676;50.848;3.272;2023-03-01T04:12:31;44.63;;;30.87;;
21034;SDS011;10676;50.848;3.272;2023-03-01T04:14:59;45.70;;;31.27;;
21034;SDS011;10676;50.848;3.272;2023-03-01T04:17:25;38.57;;;29.33;;
21034;SDS011;10676;50.848;3.272;2023-03-01T04:19:51;48.57;;;32.80;;
21034;SDS011;10676;50.848;3.272;2023-03-01T04:22:16;44.07;;;31.53;;
21034;SDS011;10676;50.848;3.272;2023-03-01T04:24:43;45.17;;;33.60;;
21034;SDS011;10676;50.848;3.272;2023-03-01T04:27:10;45.07;;;31.93;;
21034;SDS011;10676;50.848;3.272;2023-03-01T04:29:36;46.53;;;32.10;;
21034;SDS011;10676;50.848;3.272;2023-03-01T04:32:02;48.77;;;32.37;;
21034;SDS011;10676;50.848;3.272;2023-03-01T04:34:28;45.77;;;31.40;;
21034;SDS011;10676;50.848;3.272;2023-03-01T04:36:54;50.10;;;33.37;;
21034;SDS011;10676;50.848;3.272;2023-03-01T04:39:20;48.00;;;33.17;;
21034;SDS011;10676;50.848;3.272;2023-03-01T04:41:46;46.50;;;33.40;;
21034;SDS011;10676;50.848;3.272;2023-03-01T04:44:12;48.77;;;32.43;;
21034;SDS011;10676;50.848;3.272;2023-03-01T04:46:38;47.37;;;32.97;;
21034;SDS011;10676;50.848;3.272;2023-03-01T04:49:03;48.43;;;34.47;;
21034;SDS011;10676;50.848;3.272;2023-03-01T04:51:30;51.30;;;34.93;;
21034;SDS011;10676;50.848;3.272;2023-03-01T04:53:57;49.97;;;34.70;;
21034;SDS011;10676;50.848;3.272;2023-03-01T04:56:23;57.20;;;36.37;;
21034;SDS011;10676;50.848;3.272;2023-03-01T04:58:49;53.40;;;34.37;;
21034;SDS011;10676;50.848;3.272;2023-03-01T05:01:18;51.63;;;35.20;;
21034;SDS011;10676;50.848;3.272;2023-03-01T05:03:54;50.80;;;35.30;;
21034;SDS011;10676;50.848;3.272;2023-03-01T05:06:20;57.83;;;35.13;;
21034;SDS011;10676;50.848;3.272;2023-03-01T05:08:46;53.40;;;35.90;;
21034;SDS011;10676;50.848;3.272;2023-03-01T05:11:11;49.97;;;34.97;;
21034;SDS011;10676;50.848;3.272;2023-03-01T05:13:37;51.20;;;35.97;;
21034;SDS011;10676;50.848;3.272;2023-03-01T05:16:04;53.03;;;36.23;;
21034;SDS011;10676;50.848;3.272;2023-03-01T05:18:32;53.00;;;35.90;;
21034;SDS011;10676;50.848;3.272;2023-03-01T05:21:02;54.60;;;35.50;;
21034;SDS011;10676;50.848;3.272;2023-03-01T05:23:33;49.60;;;33.80;;
21034;SDS011;10676;50.848;3.272;2023-03-01T05:26:00;51.40;;;35.63;;
21034;SDS011;10676;50.848;3.272;2023-03-01T05:28:28;51.20;;;36.60;;
21034;SDS011;10676;50.848;3.272;2023-03-01T05:30:55;56.27;;;35.13;;
21034;SDS011;10676;50.848;3.272;2023-03-01T05:33:21;52.63;;;34.77;;
21034;SDS011;10676;50.848;3.272;2023-03-01T05:35:47;56.00;;;34.30;;
21034;SDS011;10676;50.848;3.272;2023-03-01T05:38:14;57.60;;;34.67;;
21034;SDS011;10676;50.848;3.272;2023-03-01T05:40:44;58.00;;;34.57;;
21034;SDS011;10676;50.848;3.272;2023-03-01T05:43:12;52.70;;;35.80;;
21034;SDS011;10676;50.848;3.272;2023-03-01T05:45:39;54.57;;;35.07;;
21034;SDS011;10676;50.848;3.272;2023-03-01T05:48:06;52.63;;;34.97;;
21034;SDS011;10676;50.848;3.272;2023-03-01T05:50:33;55.43;;;36.47;;
21034;SDS011;10676;50.848;3.272;2023-03-01T05:53:02;57.30;;;34.60;;
21034;SDS011;10676;50.848;3.272;2023-03-01T05:55:28;53.73;;;35.90;;
21034;SDS011;10676;50.848;3.272;2023-03-01T05:57:57;57.00;;;37.43;;
21034;SDS011;10676;50.848;3.272;2023-03-01T06:00:24;55.33;;;35.63;;
21034;SDS011;10676;50.848;3.272;2023-03-01T06:02:50;52.43;;;34.47;;
21034;SDS011;10676;50.848;3.272;2023-03-01T06:05:18;59.00;;;35.93;;
21034;SDS011;10676;50.848;3.272;2023-03-01T06:07:44;51.13;;;31.10;;
21034;SDS011;10676;50.848;3.272;2023-03-01T06:10:11;50.20;;;33.80;;
21034;SDS011;10676;50.848;3.272;2023-03-01T06:12:37;54.73;;;32.90;;
21034;SDS011;10676;50.848;3.272;2023-03-01T06:15:05;51.67;;;33.83;;
21034;SDS011;10676;50.848;3.272;2023-03-01T06:17:32;56.53;;;35.43;;
21034;SDS011;10676;50.848;3.272;2023-03-01T06:20:03;51.83;;;34.50;;
21034;SDS011;10676;50.848;3.272;2023-03-01T06:22:30;58.33;;;36.40;;
21034;SDS011;10676;50.848;3.272;2023-03-01T06:24:55;51.43;;;35.20;;
21034;SDS011;10676;50.848;3.272;2023-03-01T06:27:21;56.97;;;35.57;;
21034;SDS011;10676;50.848;3.272;2023-03-01T06:29:47;53.53;;;34.10;;
21034;SDS011;10676;50.848;3.272;2023-03-01T06:32:12;56.63;;;34.80;;
21034;SDS011;10676;50.848;3.272;2023-03-01T06:34:38;53.07;;;35.37;;
21034;SDS011;10676;50.848;3.272;2023-03-01T06:37:04;54.83;;;35.20;;
21034;SDS011;10676;50.848;3.272;2023-03-01T06:39:31;56.43;;;35.03;;
21034;SDS011;10676;50.848;3.272;2023-03-01T06:41:57;51.10;;;34.50;;
21034;SDS011;10676;50.848;3.272;2023-03-01T06:44:23;52.17;;;34.40;;
21034;SDS011;10676;50.848;3.272;2023-03-01T06:46:49;55.20;;;31.73;;
21034;SDS011;10676;50.848;3.272;2023-03-01T06:49:14;52.27;;;33.03;;
21034;SDS011;10676;50.848;3.272;2023-03-01T06:51:41;51.03;;;31.17;;
21034;SDS011;10676;50.848;3.272;2023-03-01T06:54:07;59.03;;;33.47;;
21034;SDS011;10676;50.848;3.272;2023-03-01T06:56:32;55.73;;;33.37;;
21034;SDS011;10676;50.848;3.272;2023-03-01T06:58:58;51.53;;;32.03;;
21034;SDS011;10676;50.848;3.272;2023-03-01T07:01:24;52.60;;;31.23;;
21034;SDS011;10676;50.848;3.272;2023-03-01T07:03:49;50.47;;;31.37;;
21034;SDS011;10676;50.848;3.272;2023-03-01T07:06:15;48.17;;;30.50;;
21034;SDS011;10676;50.848;3.272;2023-03-01T07:08:42;51.77;;;32.53;;
21034;SDS011;10676;50.848;3.272;2023-03-01T07:11:08;47.83;;;31.33;;
21034;SDS011;10676;50.848;3.272;2023-03-01T07:13:34;47.97;;;29.43;;
21034;SDS011;10676;50.848;3.272;2023-03-01T07:15:59;44.97;;;28.10;;
21034;SDS011;10676;50.848;3.272;2023-03-01T07:18:25;43.10;;;29.13;;
21034;SDS011;10676;50.848;3.272;2023-03-01T07:20:51;42.93;;;27.43;;
21034;SDS011;10676;50.848;3.272;2023-03-01T07:23:16;43.17;;;28.53;;
21034;SDS011;10676;50.848;3.272;2023-03-01T07:25:42;37.77;;;24.90;;
21034;SDS011;10676;50.848;3.272;2023-03-01T07:28:07;41.03;;;25.50;;
21034;SDS011;10676;50.848;3.272;2023-03-01T07:30:33;40.77;;;28.00;;
21034;SDS011;10676;50.848;3.272;2023-03-01T07:32:59;36.20;;;28.27;;
21034;SDS011;10676;50.848;3.272;2023-03-01T07:35:25;34.70;;;25.67;;
21034;SDS011;10676;50.848;3.272;2023-03-01T07:37:52;38.40;;;26.13;;
21034;SDS011;10676;50.848;3.272;2023-03-01T07:40:18;29.77;;;26.17;;
21034;SDS011;10676;50.848;3.272;2023-03-01T07:42:43;30.33;;;27.00;;
21034;SDS011;10676;50.848;3.272;2023-03-01T07:45:09;687.33;;;351.03;;
21034;SDS011;10676;50.848;3.272;2023-03-01T07:47:35;1999.90;;;999.90;;
21034;SDS011;10676;50.848;3.272;2023-03-01T07:50:02;1999.90;;;999.90;;
21034;SDS011;10676;50.848;3.272;2023-03-01T07:52:28;1999.90;;;999.90;;
21034;SDS011;10676;50.848;3.272;2023-03-01T07:54:55;1999.90;;;999.90;;
21034;SDS011;10676;50.848;3.272;2023-03-01T07:57:21;1999.90;;;999.90;;
21034;SDS011;10676;50.848;3.272;2023-03-01T07:59:47;1999.90;;;999.90;;
21034;SDS011;10676;50.848;3.272;2023-03-01T08:02:12;1999.90;;;999.90;;
21034;SDS011;10676;50.848;3.272;2023-03-01T08:04:40;1999.90;;;999.90;;
21034;SDS011;10676;50.848;3.272;2023-03-01T08:07:06;1999.90;;;999.90;;
21034;SDS011;10676;50.848;3.272;2023-03-01T08:09:33;1999.90;;;999.90;;
21034;SDS011;10676;50.848;3.272;2023-03-01T08:12:00;1999.90;;;999.90;;
21034;SDS011;10676;50.848;3.272;2023-03-01T08:14:26;1999.90;;;999.90;;
21034;SDS011;10676;50.848;3.272;2023-03-01T08:16:52;1999.90;;;999.90;;
21034;SDS011;10676;50.848;3.272;2023-03-01T08:19:17;1999.90;;;999.90;;
21034;SDS011;10676;50.848;3.272;2023-03-01T08:21:43;1999.90;;;999.90;;
21034;SDS011;10676;50.848;3.272;2023-03-01T08:24:09;1999.90;;;999.90;;
21034;SDS011;10676;50.848;3.272;2023-03-01T08:26:35;1999.90;;;999.90;;
21034;SDS011;10676;50.848;3.272;2023-03-01T08:29:01;1999.90;;;999.90;;
21034;SDS011;10676;50.848;3.272;2023-03-01T08:31:31;1999.90;;;999.90;;
21034;SDS011;10676;50.848;3.272;2023-03-01T08:34:00;1999.90;;;999.90;;
21034;SDS011;10676;50.848;3.272;2023-03-01T08:36:33;1999.90;;;999.90;;
21034;SDS011;10676;50.848;3.272;2023-03-01T08:39:02;1999.90;;;999.90;;
21034;SDS011;10676;50.848;3.272;2023-03-01T08:41:28;1999.90;;;999.90;;
21034;SDS011;10676;50.848;3.272;2023-03-01T08:43:54;1999.90;;;999.90;;
21034;SDS011;10676;50.848;3.272;2023-03-01T08:46:24;1999.90;;;999.90;;
21034;SDS011;10676;50.848;3.272;2023-03-01T08:48:54;1999.90;;;999.90;;
21034;SDS011;10676;50.848;3.272;2023-03-01T08:51:20;1999.90;;;999.90;;
21034;SDS011;10676;50.848;3.272;2023-03-01T08:53:47;1999.90;;;999.90;;
21034;SDS011;10676;50.848;3.272;2023-03-01T08:56:13;1999.90;;;999.90;;
21034;SDS011;10676;50.848;3.272;2023-03-01T08:58:42;1999.90;;;999.90;;
21034;SDS011;10676;50.848;3.272;2023-03-01T09:01:14;1999.90;;;999.90;;
21034;SDS011;10676;50.848;3.272;2023-03-01T09:03:41;1999.90;;;999.90;;
21034;SDS011;10676;50.848;3.272;2023-03-01T09:06:08;1999.90;;;999.90;;
21034;SDS011;10676;50.848;3.272;2023-03-01T09:08:35;1999.90;;;999.90;;
21034;SDS011;10676;50.848;3.272;2023-03-01T09:11:05;1999.90;;;999.90;;
21034;SDS011;10676;50.848;3.272;2023-03-01T09:13:32;1999.90;;;999.90;;
21034;SDS011;10676;50.848;3.272;2023-03-01T09:15:59;1999.90;;;999.90;;
21034;SDS011;10676;50.848;3.272;2023-03-01T09:18:27;1999.90;;;999.90;;
21034;SDS011;10676;50.848;3.272;2023-03-01T09:20:53;1999.90;;;999.90;;
21034;SDS011;10676;50.848;3.272;2023-03-01T09:23:25;1999.90;;;999.90;;
21034;SDS011;10676;50.848;3.272;2023-03-01T09:25:50;1999.90;;;999.90;;
21034;SDS011;10676;50.848;3.272;2023-03-01T09:28:17;1999.90;;;999.90;;
21034;SDS011;10676;50.848;3.272;2023-03-01T09:30:43;1999.90;;;999.90;;
21034;SDS011;10676;50.848;3.272;2023-03-01T09:33:09;1999.90;;;999.90;;
21034;SDS011;10676;50.848;3.272;2023-03-01T09:35:39;1999.90;;;999.90;;
21034;SDS011;10676;50.848;3.272;2023-03-01T09:38:11;1999.90;;;999.90;;
21034;SDS011;10676;50.848;3.272;2023-03-01T09:40:41;1999.90;;;999.90;;
21034;SDS011;10676;50.848;3.272;2023-03-01T09:43:31;1999.90;;;999.90;;
21034;SDS011;10676;50.848;3.272;2023-03-01T09:46:08;1999.90;;;999.90;;
21034;SDS011;10676;50.848;3.272;2023-03-01T09:48:58;1999.90;;;999.90;;
21034;SDS011;10676;50.848;3.272;2023-03-01T09:51:31;1999.90;;;999.90;;
21034;SDS011;10676;50.848;3.272;2023-03-01T09:53:59;1999.90;;;999.90;;
21034;SDS011;10676;50.848;3.272;2023-03-01T10:01:34;1999.90;;;999.90;;
21034;SDS011;10676;50.848;3.272;2023-03-01T10:04:28;1999.90;;;999.90;;
21034;SDS011;10676;50.848;3.272;2023-03-01T10:09:44;1999.90;;;999.90;;
21034;SDS011;10676;50.848;3.272;2023-03-01T10:12:12;1999.90;;;999.90;;
21034;SDS011;10676;50.848;3.272;2023-03-01T10:20:14;1999.90;;;999.90;;
21034;SDS011;10676;50.848;3.272;2023-03-01T10:22:46;1999.90;;;999.90;;
21034;SDS011;10676;50.848;3.272;2023-03-01T10:25:15;1999.90;;;999.90;;
21034;SDS011;10676;50.848;3.272;2023-03-01T10:28:04;1999.90;;;999.90;;
21034;SDS011;10676;50.848;3.272;2023-03-01T10:30:41;1999.90;;;999.90;;
21034;SDS011;10676;50.848;3.272;2023-03-01T10:33:29;1999.90;;;999.90;;
21034;SDS011;10676;50.848;3.272;2023-03-01T10:35:58;1999.90;;;999.90;;
21034;SDS011;10676;50.848;3.272;2023-03-01T10:38:24;1999.90;;;999.90;;
21034;SDS011;10676;50.848;3.272;2023-03-01T10:43:15;1999.90;;;999.90;;
21034;SDS011;10676;50.848;3.272;2023-03-01T10:45:41;1999.90;;;999.90;;
21034;SDS011;10676;50.848;3.272;2023-03-01T10:48:20;1999.90;;;999.90;;
21034;SDS011;10676;50.848;3.272;2023-03-01T10:55:56;1999.90;;;999.90;;
21034;SDS011;10676;50.848;3.272;2023-03-01T10:58:38;1999.90;;;999.90;;
21034;SDS011;10676;50.848;3.272;2023-03-01T11:03:52;1999.90;;;999.90;;
21034;SDS011;10676;50.848;3.272;2023-03-01T11:06:40;1999.90;;;999.90;;
21034;SDS011;10676;50.848;3.272;2023-03-01T11:11:43;1999.90;;;999.90;;
21034;SDS011;10676;50.848;3.272;2023-03-01T11:16:39;1999.90;;;999.90;;
21034;SDS011;10676;50.848;3.272;2023-03-01T11:21:36;1999.90;;;999.90;;
21034;SDS011;10676;50.848;3.272;2023-03-01T11:24:17;1999.90;;;999.90;;
21034;SDS011;10676;50.848;3.272;2023-03-01T11:26:49;1999.90;;;999.90;;
21034;SDS011;10676;50.848;3.272;2023-03-01T11:29:29;1999.90;;;999.90;;
21034;SDS011;10676;50.848;3.272;2023-03-01T11:32:01;1999.90;;;999.90;;
21034;SDS011;10676;50.848;3.272;2023-03-01T11:40:02;1999.90;;;999.90;;
21034;SDS011;10676;50.848;3.272;2023-03-01T11:45:47;1999.90;;;999.90;;
21034;SDS011;10676;50.848;3.272;2023-03-01T11:51:45;1999.90;;;999.90;;
21034;SDS011;10676;50.848;3.272;2023-03-01T11:57:11;1999.90;;;999.90;;
21034;SDS011;10676;50.848;3.272;2023-03-01T12:00:02;1999.90;;;999.90;;
21034;SDS011;10676;50.848;3.272;2023-03-01T12:10:28;1999.90;;;999.90;;
21034;SDS011;10676;50.848;3.272;2023-03-01T12:13:06;1999.90;;;999.90;;
21034;SDS011;10676;50.848;3.272;2023-03-01T12:18:13;1999.90;;;999.90;;
21034;SDS011;10676;50.848;3.272;2023-03-01T12:23:39;1999.90;;;999.90;;
21034;SDS011;10676;50.848;3.272;2023-03-01T12:26:30;1999.90;;;999.90;;
21034;SDS011;10676;50.848;3.272;2023-03-01T12:37:51;1999.90;;;999.90;;
21034;SDS011;10676;50.848;3.272;2023-03-01T12:41:25;1999.90;;;999.90;;
21034;SDS011;10676;50.848;3.272;2023-03-01T12:51:23;1999.90;;;999.90;;
21034;SDS011;10676;50.848;3.272;2023-03-01T12:53:51;1999.90;;;999.90;;
21034;SDS011;10676;50.848;3.272;2023-03-01T12:56:24;1999.90;;;999.90;;
21034;SDS011;10676;50.848;3.272;2023-03-01T12:59:03;1999.90;;;999.90;;
21034;SDS011;10676;50.848;3.272;2023-03-01T13:04:16;1999.90;;;999.90;;
21034;SDS011;10676;50.848;3.272;2023-03-01T13:06:58;1999.90;;;999.90;;
21034;SDS011;10676;50.848;3.272;2023-03-01T13:09:36;1999.90;;;999.90;;
21034;SDS011;10676;50.848;3.272;2023-03-01T13:17:55;1999.90;;;999.90;;
21034;SDS011;10676;50.848;3.272;2023-03-01T13:31:06;1999.90;;;999.90;;
21034;SDS011;10676;50.848;3.272;2023-03-01T13:33:37;1999.90;;;999.90;;
21034;SDS011;10676;50.848;3.272;2023-03-01T13:36:06;1999.90;;;999.90;;
21034;SDS011;10676;50.848;3.272;2023-03-01T13:38:47;1999.90;;;999.90;;
21034;SDS011;10676;50.848;3.272;2023-03-01T13:49:33;1999.90;;;999.90;;
21034;SDS011;10676;50.848;3.272;2023-03-01T13:52:13;1999.90;;;999.90;;
21034;SDS011;10676;50.848;3.272;2023-03-01T13:55:00;1999.90;;;999.90;;
21034;SDS011;10676;50.848;3.272;2023-03-01T13:57:35;1999.90;;;999.90;;
21034;SDS011;10676;50.848;3.272;2023-03-01T14:00:04;1999.90;;;999.90;;
21034;SDS011;10676;50.848;3.272;2023-03-01T14:02:30;1999.90;;;999.90;;
21034;SDS011;10676;50.848;3.272;2023-03-01T14:04:57;1999.90;;;999.90;;
21034;SDS011;10676;50.848;3.272;2023-03-01T14:07:24;1999.90;;;999.90;;
21034;SDS011;10676;50.848;3.272;2023-03-01T14:09:52;1999.90;;;999.90;;
21034;SDS011;10676;50.848;3.272;2023-03-01T14:15:22;1999.90;;;999.90;;
21034;SDS011;10676;50.848;3.272;2023-03-01T14:20:41;1999.90;;;999.90;;
21034;SDS011;10676;50.848;3.272;2023-03-01T14:23:14;1999.90;;;999.90;;
21034;SDS011;10676;50.848;3.272;2023-03-01T14:26:01;1999.90;;;999.90;;
21034;SDS011;10676;50.848;3.272;2023-03-01T14:28:27;1999.90;;;999.90;;
21034;SDS011;10676;50.848;3.272;2023-03-01T14:31:02;1999.90;;;999.90;;
21034;SDS011;10676;50.848;3.272;2023-03-01T14:33:53;1999.90;;;999.90;;
21034;SDS011;10676;50.848;3.272;2023-03-01T14:36:25;1999.90;;;999.90;;
21034;SDS011;10676;50.848;3.272;2023-03-01T14:38:52;1999.90;;;999.90;;
21034;SDS011;10676;50.848;3.272;2023-03-01T14:41:20;1999.90;;;999.90;;
21034;SDS011;10676;50.848;3.272;2023-03-01T14:43:58;1999.90;;;999.90;;
21034;SDS011;10676;50.848;3.272;2023-03-01T14:46:29;1999.90;;;999.90;;
21034;SDS011;10676;50.848;3.272;2023-03-01T14:48:57;1999.90;;;999.90;;
21034;SDS011;10676;50.848;3.272;2023-03-01T14:51:27;1999.90;;;999.90;;
21034;SDS011;10676;50.848;3.272;2023-03-01T14:53:53;1999.90;;;999.90;;
21034;SDS011;10676;50.848;3.272;2023-03-01T14:56:19;1999.90;;;999.90;;
21034;SDS011;10676;50.848;3.272;2023-03-01T14:58:45;1999.90;;;999.90;;
21034;SDS011;10676;50.848;3.272;2023-03-01T15:01:15;1999.90;;;999.90;;
21034;SDS011;10676;50.848;3.272;2023-03-01T15:03:44;1999.90;;;999.90;;
21034;SDS011;10676;50.848;3.272;2023-03-01T15:06:14;1999.90;;;999.90;;
21034;SDS011;10676;50.848;3.272;2023-03-01T15:08:46;1999.90;;;999.90;;
21034;SDS011;10676;50.848;3.272;2023-03-01T15:11:20;1999.90;;;999.90;;
21034;SDS011;10676;50.848;3.272;2023-03-01T15:13:53;1999.90;;;999.90;;
21034;SDS011;10676;50.848;3.272;2023-03-01T15:19:03;1999.90;;;999.90;;
21034;SDS011;10676;50.848;3.272;2023-03-01T15:21:36;1999.90;;;999.90;;
21034;SDS011;10676;50.848;3.272;2023-03-01T15:24:07;1999.90;;;999.90;;
21034;SDS011;10676;50.848;3.272;2023-03-01T15:26:40;1999.90;;;999.90;;
21034;SDS011;10676;50.848;3.272;2023-03-01T15:29:17;1999.90;;;999.90;;
21034;SDS011;10676;50.848;3.272;2023-03-01T15:31:53;1999.90;;;999.90;;
21034;SDS011;10676;50.848;3.272;2023-03-01T15:36:47;1999.90;;;999.90;;
21034;SDS011;10676;50.848;3.272;2023-03-01T15:39:31;1999.90;;;999.90;;
21034;SDS011;10676;50.848;3.272;2023-03-01T15:42:23;1999.90;;;999.90;;
21034;SDS011;10676;50.848;3.272;2023-03-01T15:47:52;1999.90;;;999.90;;
21034;SDS011;10676;50.848;3.272;2023-03-01T15:50:30;1999.90;;;999.90;;
21034;SDS011;10676;50.848;3.272;2023-03-01T15:53:00;1999.90;;;999.90;;
21034;SDS011;10676;50.848;3.272;2023-03-01T15:55:31;1999.90;;;999.90;;
21034;SDS011;10676;50.848;3.272;2023-03-01T16:00:26;1999.90;;;999.90;;
21034;SDS011;10676;50.848;3.272;2023-03-01T16:02:52;1999.90;;;999.90;;
21034;SDS011;10676;50.848;3.272;2023-03-01T16:05:22;1999.90;;;999.90;;
21034;SDS011;10676;50.848;3.272;2023-03-01T16:07:51;1999.90;;;999.90;;
21034;SDS011;10676;50.848;3.272;2023-03-01T16:10:17;1999.90;;;999.90;;
21034;SDS011;10676;50.848;3.272;2023-03-01T16:12:43;1999.90;;;999.90;;
21034;SDS011;10676;50.848;3.272;2023-03-01T16:15:25;1999.90;;;999.90;;
21034;SDS011;10676;50.848;3.272;2023-03-01T16:17:53;1999.90;;;999.90;;
21034;SDS011;10676;50.848;3.272;2023-03-01T16:20:19;1999.90;;;999.90;;
21034;SDS011;10676;50.848;3.272;2023-03-01T16:22:45;1999.90;;;999.90;;